Hoard, Texas
Current Conditions -  °F | °C
As of 3:15 AM on Sunday 26 Oct 2014 (Local Time) from KJDD Reporting Station
Clear Clear  
Wind Chill: 70°   Ceiling: Unl
Heat Index: 70°   Visibility: 10mi
Dew Point: 63°   Wind: 5mph
Humidity: 78%   Direction: 200°SSW
Pressure: 30.04"   Gusts: NA
Location:  32.6629°N, 95.4808°W
Report Text: KJDD 260815Z AUTO 20004KT 10SM CLR 21/17 A3004 RMK AO2
Loading
Personal Weather Stations






























Interactive Weather Map
Tropical Storm Tracking
New forecast layout! Learn more

10-Day Weather Forecast

Advertisements
Track Severe Weather on mobile